sensor_id;sensor_type;location;lat;lon;timestamp;P1;durP1;ratioP1;P2;durP2;ratioP2
58412;SDS011;44209;52.952;6.790;2023-04-06T00:01:54;9.73;;;8.30;;
58412;SDS011;44209;52.952;6.790;2023-04-06T00:04:20;10.13;;;8.70;;
58412;SDS011;44209;52.952;6.790;2023-04-06T00:06:46;11.67;;;9.07;;
58412;SDS011;44209;52.952;6.790;2023-04-06T00:09:11;11.27;;;8.70;;
58412;SDS011;44209;52.952;6.790;2023-04-06T00:11:37;9.50;;;8.37;;
58412;SDS011;44209;52.952;6.790;2023-04-06T00:14:03;14.57;;;8.70;;
58412;SDS011;44209;52.952;6.790;2023-04-06T00:16:28;11.13;;;8.80;;
58412;SDS011;44209;52.952;6.790;2023-04-06T00:18:54;10.73;;;8.27;;
58412;SDS011;44209;52.952;6.790;2023-04-06T00:21:20;9.50;;;8.33;;
58412;SDS011;44209;52.952;6.790;2023-04-06T00:23:45;9.20;;;8.13;;
58412;SDS011;44209;52.952;6.790;2023-04-06T00:26:11;8.83;;;7.93;;
58412;SDS011;44209;52.952;6.790;2023-04-06T00:28:37;9.43;;;8.43;;
58412;SDS011;44209;52.952;6.790;2023-04-06T00:31:03;9.67;;;8.67;;
58412;SDS011;44209;52.952;6.790;2023-04-06T00:33:29;9.10;;;8.17;;
58412;SDS011;44209;52.952;6.790;2023-04-06T00:35:54;10.80;;;9.03;;
58412;SDS011;44209;52.952;6.790;2023-04-06T00:38:21;9.17;;;8.17;;
58412;SDS011;44209;52.952;6.790;2023-04-06T00:40:47;13.20;;;8.53;;
58412;SDS011;44209;52.952;6.790;2023-04-06T00:43:13;11.23;;;8.23;;
58412;SDS011;44209;52.952;6.790;2023-04-06T00:45:39;9.93;;;8.53;;
58412;SDS011;44209;52.952;6.790;2023-04-06T00:48:06;9.67;;;8.67;;
58412;SDS011;44209;52.952;6.790;2023-04-06T00:50:33;10.90;;;8.53;;
58412;SDS011;44209;52.952;6.790;2023-04-06T00:52:59;9.33;;;8.33;;
58412;SDS011;44209;52.952;6.790;2023-04-06T00:55:28;10.67;;;8.43;;
58412;SDS011;44209;52.952;6.790;2023-04-06T00:57:55;11.33;;;8.67;;
58412;SDS011;44209;52.952;6.790;2023-04-06T01:00:23;10.07;;;8.37;;
58412;SDS011;44209;52.952;6.790;2023-04-06T01:02:49;10.07;;;8.17;;
58412;SDS011;44209;52.952;6.790;2023-04-06T01:05:15;11.60;;;8.40;;
58412;SDS011;44209;52.952;6.790;2023-04-06T01:07:41;11.23;;;9.17;;
58412;SDS011;44209;52.952;6.790;2023-04-06T01:10:07;11.17;;;8.80;;
58412;SDS011;44209;52.952;6.790;2023-04-06T01:12:33;11.07;;;8.63;;
58412;SDS011;44209;52.952;6.790;2023-04-06T01:14:59;9.13;;;8.07;;
58412;SDS011;44209;52.952;6.790;2023-04-06T01:17:25;10.10;;;8.77;;
58412;SDS011;44209;52.952;6.790;2023-04-06T01:19:50;10.50;;;8.80;;
58412;SDS011;44209;52.952;6.790;2023-04-06T01:22:18;9.40;;;8.40;;
58412;SDS011;44209;52.952;6.790;2023-04-06T01:24:45;10.10;;;8.63;;
58412;SDS011;44209;52.952;6.790;2023-04-06T01:27:11;10.77;;;8.70;;
58412;SDS011;44209;52.952;6.790;2023-04-06T01:29:38;12.17;;;9.80;;
58412;SDS011;44209;52.952;6.790;2023-04-06T01:32:06;14.90;;;9.60;;
58412;SDS011;44209;52.952;6.790;2023-04-06T01:34:32;12.23;;;9.30;;
58412;SDS011;44209;52.952;6.790;2023-04-06T01:36:58;10.53;;;8.83;;
58412;SDS011;44209;52.952;6.790;2023-04-06T01:39:23;12.80;;;9.60;;
58412;SDS011;44209;52.952;6.790;2023-04-06T01:41:49;11.10;;;8.83;;
58412;SDS011;44209;52.952;6.790;2023-04-06T01:44:18;10.23;;;8.57;;
58412;SDS011;44209;52.952;6.790;2023-04-06T01:46:44;10.57;;;9.07;;
58412;SDS011;44209;52.952;6.790;2023-04-06T01:49:11;12.40;;;8.07;;
58412;SDS011;44209;52.952;6.790;2023-04-06T01:51:37;12.13;;;8.50;;
58412;SDS011;44209;52.952;6.790;2023-04-06T01:54:03;9.83;;;8.83;;
58412;SDS011;44209;52.952;6.790;2023-04-06T01:56:28;12.03;;;9.13;;
58412;SDS011;44209;52.952;6.790;2023-04-06T01:58:54;10.07;;;9.00;;
58412;SDS011;44209;52.952;6.790;2023-04-06T02:01:20;11.33;;;9.17;;
58412;SDS011;44209;52.952;6.790;2023-04-06T02:03:46;10.40;;;9.10;;
58412;SDS011;44209;52.952;6.790;2023-04-06T02:06:12;12.00;;;9.60;;
58412;SDS011;44209;52.952;6.790;2023-04-06T02:08:38;11.77;;;9.70;;
58412;SDS011;44209;52.952;6.790;2023-04-06T02:11:03;12.07;;;8.97;;
58412;SDS011;44209;52.952;6.790;2023-04-06T02:13:29;16.43;;;9.40;;
58412;SDS011;44209;52.952;6.790;2023-04-06T02:15:55;10.30;;;8.73;;
58412;SDS011;44209;52.952;6.790;2023-04-06T02:18:22;9.70;;;8.77;;
58412;SDS011;44209;52.952;6.790;2023-04-06T02:20:47;9.80;;;8.60;;
58412;SDS011;44209;52.952;6.790;2023-04-06T02:23:13;12.03;;;9.03;;
58412;SDS011;44209;52.952;6.790;2023-04-06T02:25:39;10.57;;;8.90;;
58412;SDS011;44209;52.952;6.790;2023-04-06T02:28:06;12.73;;;9.20;;
58412;SDS011;44209;52.952;6.790;2023-04-06T02:30:31;11.77;;;8.90;;
58412;SDS011;44209;52.952;6.790;2023-04-06T02:32:58;10.27;;;9.07;;
58412;SDS011;44209;52.952;6.790;2023-04-06T02:35:27;12.07;;;9.47;;
58412;SDS011;44209;52.952;6.790;2023-04-06T02:37:54;10.40;;;8.83;;
58412;SDS011;44209;52.952;6.790;2023-04-06T02:40:19;11.23;;;9.13;;
58412;SDS011;44209;52.952;6.790;2023-04-06T02:42:45;11.67;;;9.90;;
58412;SDS011;44209;52.952;6.790;2023-04-06T02:45:11;10.83;;;9.03;;
58412;SDS011;44209;52.952;6.790;2023-04-06T02:47:37;11.23;;;9.23;;
58412;SDS011;44209;52.952;6.790;2023-04-06T02:50:02;10.33;;;9.13;;
58412;SDS011;44209;52.952;6.790;2023-04-06T02:52:28;10.23;;;9.10;;
58412;SDS011;44209;52.952;6.790;2023-04-06T02:54:54;10.30;;;9.20;;
58412;SDS011;44209;52.952;6.790;2023-04-06T02:57:20;10.67;;;9.57;;
58412;SDS011;44209;52.952;6.790;2023-04-06T02:59:46;10.83;;;9.50;;
58412;SDS011;44209;52.952;6.790;2023-04-06T03:02:11;12.03;;;9.17;;
58412;SDS011;44209;52.952;6.790;2023-04-06T03:04:37;11.80;;;9.63;;
58412;SDS011;44209;52.952;6.790;2023-04-06T03:07:03;11.30;;;9.00;;
58412;SDS011;44209;52.952;6.790;2023-04-06T03:09:28;10.40;;;9.30;;
58412;SDS011;44209;52.952;6.790;2023-04-06T03:11:54;10.10;;;9.10;;
58412;SDS011;44209;52.952;6.790;2023-04-06T03:14:20;12.10;;;9.10;;
58412;SDS011;44209;52.952;6.790;2023-04-06T03:16:47;11.23;;;9.60;;
58412;SDS011;44209;52.952;6.790;2023-04-06T03:19:14;11.20;;;9.70;;
58412;SDS011;44209;52.952;6.790;2023-04-06T03:21:40;10.93;;;9.40;;
58412;SDS011;44209;52.952;6.790;2023-04-06T03:24:06;13.37;;;10.30;;
58412;SDS011;44209;52.952;6.790;2023-04-06T03:26:32;11.33;;;9.43;;
58412;SDS011;44209;52.952;6.790;2023-04-06T03:28:58;11.37;;;9.77;;
58412;SDS011;44209;52.952;6.790;2023-04-06T03:31:25;12.60;;;9.80;;
58412;SDS011;44209;52.952;6.790;2023-04-06T03:33:51;10.60;;;9.10;;
58412;SDS011;44209;52.952;6.790;2023-04-06T03:36:17;10.70;;;9.60;;
58412;SDS011;44209;52.952;6.790;2023-04-06T03:38:42;10.67;;;9.60;;
58412;SDS011;44209;52.952;6.790;2023-04-06T03:41:08;11.67;;;9.50;;
58412;SDS011;44209;52.952;6.790;2023-04-06T03:43:34;14.63;;;9.93;;
58412;SDS011;44209;52.952;6.790;2023-04-06T03:46:00;11.37;;;9.97;;
58412;SDS011;44209;52.952;6.790;2023-04-06T03:48:25;11.47;;;9.93;;
58412;SDS011;44209;52.952;6.790;2023-04-06T03:50:51;12.87;;;10.20;;
58412;SDS011;44209;52.952;6.790;2023-04-06T03:53:17;14.00;;;9.93;;
58412;SDS011;44209;52.952;6.790;2023-04-06T03:55:42;12.07;;;9.47;;
58412;SDS011;44209;52.952;6.790;2023-04-06T03:58:08;13.00;;;10.43;;
58412;SDS011;44209;52.952;6.790;2023-04-06T04:00:34;11.27;;;10.03;;
58412;SDS011;44209;52.952;6.790;2023-04-06T04:03:00;16.87;;;10.17;;
58412;SDS011;44209;52.952;6.790;2023-04-06T04:05:27;10.83;;;9.23;;
58412;SDS011;44209;52.952;6.790;2023-04-06T04:07:53;12.87;;;10.27;;
58412;SDS011;44209;52.952;6.790;2023-04-06T04:10:19;11.77;;;10.00;;
58412;SDS011;44209;52.952;6.790;2023-04-06T04:12:44;13.13;;;9.90;;
58412;SDS011;44209;52.952;6.790;2023-04-06T04:15:10;13.30;;;10.07;;
58412;SDS011;44209;52.952;6.790;2023-04-06T04:17:36;11.40;;;9.83;;
58412;SDS011;44209;52.952;6.790;2023-04-06T04:20:01;12.93;;;10.33;;
58412;SDS011;44209;52.952;6.790;2023-04-06T04:22:27;15.23;;;10.80;;
58412;SDS011;44209;52.952;6.790;2023-04-06T04:24:53;11.77;;;10.07;;
58412;SDS011;44209;52.952;6.790;2023-04-06T04:27:19;13.93;;;10.40;;
58412;SDS011;44209;52.952;6.790;2023-04-06T04:29:45;11.83;;;10.63;;
58412;SDS011;44209;52.952;6.790;2023-04-06T04:32:11;12.70;;;10.73;;
58412;SDS011;44209;52.952;6.790;2023-04-06T04:34:37;13.03;;;11.70;;
58412;SDS011;44209;52.952;6.790;2023-04-06T04:37:05;14.63;;;11.10;;
58412;SDS011;44209;52.952;6.790;2023-04-06T04:39:31;12.97;;;11.23;;
58412;SDS011;44209;52.952;6.790;2023-04-06T04:41:57;14.47;;;10.57;;
58412;SDS011;44209;52.952;6.790;2023-04-06T04:44:23;14.90;;;11.87;;
58412;SDS011;44209;52.952;6.790;2023-04-06T04:46:49;13.50;;;11.30;;
58412;SDS011;44209;52.952;6.790;2023-04-06T04:49:15;15.47;;;11.73;;
58412;SDS011;44209;52.952;6.790;2023-04-06T04:51:40;13.57;;;11.60;;
58412;SDS011;44209;52.952;6.790;2023-04-06T04:54:06;16.30;;;11.10;;
58412;SDS011;44209;52.952;6.790;2023-04-06T04:56:32;12.93;;;11.07;;
58412;SDS011;44209;52.952;6.790;2023-04-06T04:58:57;12.67;;;11.37;;
58412;SDS011;44209;52.952;6.790;2023-04-06T05:01:23;14.17;;;12.33;;
58412;SDS011;44209;52.952;6.790;2023-04-06T05:03:49;13.23;;;11.23;;
58412;SDS011;44209;52.952;6.790;2023-04-06T05:06:15;15.03;;;11.30;;
58412;SDS011;44209;52.952;6.790;2023-04-06T05:08:41;14.07;;;11.17;;
58412;SDS011;44209;52.952;6.790;2023-04-06T05:11:07;13.93;;;12.10;;
58412;SDS011;44209;52.952;6.790;2023-04-06T05:13:34;14.50;;;12.10;;
58412;SDS011;44209;52.952;6.790;2023-04-06T05:16:00;18.07;;;11.67;;
58412;SDS011;44209;52.952;6.790;2023-04-06T05:18:26;13.73;;;11.50;;
58412;SDS011;44209;52.952;6.790;2023-04-06T05:20:51;15.13;;;11.73;;
58412;SDS011;44209;52.952;6.790;2023-04-06T05:23:17;13.80;;;11.93;;
58412;SDS011;44209;52.952;6.790;2023-04-06T05:25:43;14.50;;;11.60;;
58412;SDS011;44209;52.952;6.790;2023-04-06T05:28:09;15.13;;;11.87;;
58412;SDS011;44209;52.952;6.790;2023-04-06T05:30:35;17.03;;;12.20;;
58412;SDS011;44209;52.952;6.790;2023-04-06T05:33:01;15.47;;;12.13;;
58412;SDS011;44209;52.952;6.790;2023-04-06T05:35:27;14.37;;;12.03;;
58412;SDS011;44209;52.952;6.790;2023-04-06T05:37:52;15.27;;;12.63;;
58412;SDS011;44209;52.952;6.790;2023-04-06T05:40:18;14.13;;;12.50;;
58412;SDS011;44209;52.952;6.790;2023-04-06T05:42:44;17.93;;;12.07;;
58412;SDS011;44209;52.952;6.790;2023-04-06T05:45:10;14.80;;;11.97;;
58412;SDS011;44209;52.952;6.790;2023-04-06T05:47:41;14.20;;;11.45;;
58412;SDS011;44209;52.952;6.790;2023-04-06T05:50:08;17.03;;;12.97;;
58412;SDS011;44209;52.952;6.790;2023-04-06T05:52:35;15.37;;;12.07;;
58412;SDS011;44209;52.952;6.790;2023-04-06T05:55:00;17.10;;;12.20;;
58412;SDS011;44209;52.952;6.790;2023-04-06T05:57:27;17.57;;;13.00;;
58412;SDS011;44209;52.952;6.790;2023-04-06T05:59:52;14.20;;;12.03;;
58412;SDS011;44209;52.952;6.790;2023-04-06T06:02:18;17.10;;;12.27;;
58412;SDS011;44209;52.952;6.790;2023-04-06T06:04:44;16.27;;;12.80;;
58412;SDS011;44209;52.952;6.790;2023-04-06T06:07:10;15.83;;;12.20;;
58412;SDS011;44209;52.952;6.790;2023-04-06T06:09:35;16.37;;;12.47;;
58412;SDS011;44209;52.952;6.790;2023-04-06T06:12:01;13.47;;;11.93;;
58412;SDS011;44209;52.952;6.790;2023-04-06T06:14:27;16.03;;;12.33;;
58412;SDS011;44209;52.952;6.790;2023-04-06T06:16:53;15.03;;;12.63;;
58412;SDS011;44209;52.952;6.790;2023-04-06T06:19:19;15.57;;;12.77;;
58412;SDS011;44209;52.952;6.790;2023-04-06T06:21:45;20.73;;;13.43;;
58412;SDS011;44209;52.952;6.790;2023-04-06T06:24:11;16.17;;;12.43;;
58412;SDS011;44209;52.952;6.790;2023-04-06T06:26:36;17.90;;;13.00;;
58412;SDS011;44209;52.952;6.790;2023-04-06T06:29:04;15.73;;;11.63;;
58412;SDS011;44209;52.952;6.790;2023-04-06T06:31:30;16.57;;;13.00;;
58412;SDS011;44209;52.952;6.790;2023-04-06T06:33:57;14.50;;;12.60;;
58412;SDS011;44209;52.952;6.790;2023-04-06T06:36:22;16.33;;;12.67;;
58412;SDS011;44209;52.952;6.790;2023-04-06T06:38:48;15.07;;;12.47;;
58412;SDS011;44209;52.952;6.790;2023-04-06T06:41:14;16.53;;;12.43;;
58412;SDS011;44209;52.952;6.790;2023-04-06T06:43:40;18.23;;;12.90;;
58412;SDS011;44209;52.952;6.790;2023-04-06T06:46:06;17.20;;;12.33;;
58412;SDS011;44209;52.952;6.790;2023-04-06T06:48:32;14.57;;;13.00;;
58412;SDS011;44209;52.952;6.790;2023-04-06T06:50:58;18.90;;;13.10;;
58412;SDS011;44209;52.952;6.790;2023-04-06T06:53:23;15.03;;;12.00;;
58412;SDS011;44209;52.952;6.790;2023-04-06T06:55:49;18.97;;;13.87;;
58412;SDS011;44209;52.952;6.790;2023-04-06T06:58:17;14.43;;;12.93;;
58412;SDS011;44209;52.952;6.790;2023-04-06T07:00:44;18.83;;;13.60;;
58412;SDS011;44209;52.952;6.790;2023-04-06T07:03:10;15.53;;;13.00;;
58412;SDS011;44209;52.952;6.790;2023-04-06T07:05:35;15.63;;;13.10;;
58412;SDS011;44209;52.952;6.790;2023-04-06T07:08:01;15.80;;;12.67;;
58412;SDS011;44209;52.952;6.790;2023-04-06T07:10:27;15.90;;;13.43;;
58412;SDS011;44209;52.952;6.790;2023-04-06T07:12:53;15.93;;;12.67;;
58412;SDS011;44209;52.952;6.790;2023-04-06T07:15:18;17.90;;;13.50;;
58412;SDS011;44209;52.952;6.790;2023-04-06T07:17:44;16.57;;;13.13;;
58412;SDS011;44209;52.952;6.790;2023-04-06T07:20:11;20.17;;;13.20;;
58412;SDS011;44209;52.952;6.790;2023-04-06T07:22:43;17.23;;;13.77;;
58412;SDS011;44209;52.952;6.790;2023-04-06T07:25:13;16.60;;;13.13;;
58412;SDS011;44209;52.952;6.790;2023-04-06T07:27:39;16.63;;;13.73;;
58412;SDS011;44209;52.952;6.790;2023-04-06T07:30:05;16.77;;;13.23;;
58412;SDS011;44209;52.952;6.790;2023-04-06T07:32:31;16.87;;;13.63;;
58412;SDS011;44209;52.952;6.790;2023-04-06T07:34:59;16.13;;;13.30;;
58412;SDS011;44209;52.952;6.790;2023-04-06T07:37:25;15.83;;;13.87;;
58412;SDS011;44209;52.952;6.790;2023-04-06T07:39:50;19.93;;;13.00;;
58412;SDS011;44209;52.952;6.790;2023-04-06T07:42:16;15.63;;;13.77;;
58412;SDS011;44209;52.952;6.790;2023-04-06T07:44:42;19.40;;;14.23;;
58412;SDS011;44209;52.952;6.790;2023-04-06T07:47:07;16.67;;;13.80;;
58412;SDS011;44209;52.952;6.790;2023-04-06T07:49:33;17.60;;;14.00;;
58412;SDS011;44209;52.952;6.790;2023-04-06T07:51:59;16.73;;;14.00;;
58412;SDS011;44209;52.952;6.790;2023-04-06T07:54:27;16.13;;;13.53;;
58412;SDS011;44209;52.952;6.790;2023-04-06T07:56:53;19.90;;;14.30;;
58412;SDS011;44209;52.952;6.790;2023-04-06T07:59:19;18.60;;;14.07;;
58412;SDS011;44209;52.952;6.790;2023-04-06T08:01:45;17.03;;;13.70;;
58412;SDS011;44209;52.952;6.790;2023-04-06T08:04:11;15.70;;;13.40;;
58412;SDS011;44209;52.952;6.790;2023-04-06T08:06:36;16.23;;;13.77;;
58412;SDS011;44209;52.952;6.790;2023-04-06T08:09:02;17.17;;;13.73;;
58412;SDS011;44209;52.952;6.790;2023-04-06T08:11:28;18.17;;;13.90;;
58412;SDS011;44209;52.952;6.790;2023-04-06T08:13:54;19.10;;;13.73;;
58412;SDS011;44209;52.952;6.790;2023-04-06T08:16:23;17.67;;;14.03;;
58412;SDS011;44209;52.952;6.790;2023-04-06T08:18:49;20.13;;;13.77;;
58412;SDS011;44209;52.952;6.790;2023-04-06T08:21:15;16.90;;;13.40;;
58412;SDS011;44209;52.952;6.790;2023-04-06T08:23:40;18.77;;;13.23;;
58412;SDS011;44209;52.952;6.790;2023-04-06T08:26:06;16.17;;;13.70;;
58412;SDS011;44209;52.952;6.790;2023-04-06T08:28:32;19.87;;;13.63;;
58412;SDS011;44209;52.952;6.790;2023-04-06T08:31:02;17.33;;;13.53;;
58412;SDS011;44209;52.952;6.790;2023-04-06T08:33:31;16.23;;;13.00;;
58412;SDS011;44209;52.952;6.790;2023-04-06T08:36:06;15.87;;;13.00;;
58412;SDS011;44209;52.952;6.790;2023-04-06T08:38:35;16.93;;;14.13;;
58412;SDS011;44209;52.952;6.790;2023-04-06T08:41:12;16.27;;;12.87;;
58412;SDS011;44209;52.952;6.790;2023-04-06T08:43:43;15.27;;;13.13;;
58412;SDS011;44209;52.952;6.790;2023-04-06T08:46:11;15.47;;;12.33;;
58412;SDS011;44209;52.952;6.790;2023-04-06T08:48:38;16.23;;;13.20;;
58412;SDS011;44209;52.952;6.790;2023-04-06T08:51:05;18.90;;;12.93;;
58412;SDS011;44209;52.952;6.790;2023-04-06T08:53:31;15.80;;;12.67;;
58412;SDS011;44209;52.952;6.790;2023-04-06T08:55:57;15.23;;;12.70;;
58412;SDS011;44209;52.952;6.790;2023-04-06T08:58:25;15.10;;;11.70;;
58412;SDS011;44209;52.952;6.790;2023-04-06T09:00:53;16.20;;;12.10;;
58412;SDS011;44209;52.952;6.790;2023-04-06T09:03:19;19.30;;;12.10;;
58412;SDS011;44209;52.952;6.790;2023-04-06T09:05:46;17.47;;;12.37;;
58412;SDS011;44209;52.952;6.790;2023-04-06T09:08:12;20.40;;;12.57;;
58412;SDS011;44209;52.952;6.790;2023-04-06T09:10:41;16.77;;;12.97;;
58412;SDS011;44209;52.952;6.790;2023-04-06T09:13:07;17.03;;;13.10;;
58412;SDS011;44209;52.952;6.790;2023-04-06T09:15:34;15.37;;;12.17;;
58412;SDS011;44209;52.952;6.790;2023-04-06T09:18:00;18.30;;;13.23;;
58412;SDS011;44209;52.952;6.790;2023-04-06T09:20:26;16.97;;;12.67;;
58412;SDS011;44209;52.952;6.790;2023-04-06T09:22:53;15.23;;;11.93;;
58412;SDS011;44209;52.952;6.790;2023-04-06T09:25:23;15.67;;;12.27;;
58412;SDS011;44209;52.952;6.790;2023-04-06T09:27:58;15.57;;;12.73;;
58412;SDS011;44209;52.952;6.790;2023-04-06T09:30:26;16.47;;;12.97;;
58412;SDS011;44209;52.952;6.790;2023-04-06T09:32:52;17.47;;;13.20;;
58412;SDS011;44209;52.952;6.790;2023-04-06T09:35:20;16.60;;;12.33;;
58412;SDS011;44209;52.952;6.790;2023-04-06T09:37:47;17.83;;;13.10;;
58412;SDS011;44209;52.952;6.790;2023-04-06T09:40:14;14.90;;;11.63;;
58412;SDS011;44209;52.952;6.790;2023-04-06T09:42:42;17.27;;;13.37;;
58412;SDS011;44209;52.952;6.790;2023-04-06T09:45:11;17.80;;;12.90;;
58412;SDS011;44209;52.952;6.790;2023-04-06T09:47:37;18.63;;;13.03;;
58412;SDS011;44209;52.952;6.790;2023-04-06T09:50:05;22.03;;;13.73;;
58412;SDS011;44209;52.952;6.790;2023-04-06T09:52:48;17.83;;;13.27;;
58412;SDS011;44209;52.952;6.790;2023-04-06T09:55:17;20.47;;;15.33;;
58412;SDS011;44209;52.952;6.790;2023-04-06T10:00:32;20.07;;;14.63;;
58412;SDS011;44209;52.952;6.790;2023-04-06T10:05:57;17.67;;;14.13;;
58412;SDS011;44209;52.952;6.790;2023-04-06T10:08:29;21.57;;;15.60;;
58412;SDS011;44209;52.952;6.790;2023-04-06T10:10:58;22.77;;;15.97;;
58412;SDS011;44209;52.952;6.790;2023-04-06T10:13:25;21.93;;;14.97;;
58412;SDS011;44209;52.952;6.790;2023-04-06T10:15:52;25.13;;;16.43;;
58412;SDS011;44209;52.952;6.790;2023-04-06T10:18:19;27.80;;;17.37;;
58412;SDS011;44209;52.952;6.790;2023-04-06T10:23:24;24.77;;;17.03;;
58412;SDS011;44209;52.952;6.790;2023-04-06T10:26:01;23.53;;;16.53;;
58412;SDS011;44209;52.952;6.790;2023-04-06T10:28:35;23.67;;;17.57;;
58412;SDS011;44209;52.952;6.790;2023-04-06T10:31:02;25.90;;;16.37;;
58412;SDS011;44209;52.952;6.790;2023-04-06T10:33:30;21.80;;;16.27;;
58412;SDS011;44209;52.952;6.790;2023-04-06T10:35:56;23.00;;;16.40;;
58412;SDS011;44209;52.952;6.790;2023-04-06T10:38:35;22.60;;;16.93;;
58412;SDS011;44209;52.952;6.790;2023-04-06T10:41:05;33.87;;;17.97;;
58412;SDS011;44209;52.952;6.790;2023-04-06T10:43:33;24.27;;;17.33;;
58412;SDS011;44209;52.952;6.790;2023-04-06T10:46:05;24.20;;;18.10;;
58412;SDS011;44209;52.952;6.790;2023-04-06T10:51:12;25.37;;;18.13;;
58412;SDS011;44209;52.952;6.790;2023-04-06T10:53:43;24.70;;;17.37;;
58412;SDS011;44209;52.952;6.790;2023-04-06T10:56:12;27.43;;;17.80;;
58412;SDS011;44209;52.952;6.790;2023-04-06T10:58:46;23.83;;;17.30;;
58412;SDS011;44209;52.952;6.790;2023-04-06T11:01:16;25.17;;;17.53;;
58412;SDS011;44209;52.952;6.790;2023-04-06T11:03:48;25.87;;;18.00;;
58412;SDS011;44209;52.952;6.790;2023-04-06T11:08:44;25.13;;;18.13;;
58412;SDS011;44209;52.952;6.790;2023-04-06T11:11:11;28.40;;;19.07;;
58412;SDS011;44209;52.952;6.790;2023-04-06T11:13:44;25.40;;;18.90;;
58412;SDS011;44209;52.952;6.790;2023-04-06T11:16:19;28.98;;;20.35;;
58412;SDS011;44209;52.952;6.790;2023-04-06T11:19:05;29.60;;;20.03;;
58412;SDS011;44209;52.952;6.790;2023-04-06T11:21:35;29.30;;;19.93;;
58412;SDS011;44209;52.952;6.790;2023-04-06T11:24:14;25.95;;;19.95;;
58412;SDS011;44209;52.952;6.790;2023-04-06T11:26:43;29.67;;;20.63;;
58412;SDS011;44209;52.952;6.790;2023-04-06T11:29:23;31.50;;;20.52;;
58412;SDS011;44209;52.952;6.790;2023-04-06T11:31:52;29.37;;;19.83;;
58412;SDS011;44209;52.952;6.790;2023-04-06T11:34:28;32.73;;;22.70;;
58412;SDS011;44209;52.952;6.790;2023-04-06T11:36:56;36.72;;;23.00;;
58412;SDS011;44209;52.952;6.790;2023-04-06T11:39:27;32.17;;;22.10;;
58412;SDS011;44209;52.952;6.790;2023-04-06T11:41:58;32.67;;;22.27;;
58412;SDS011;44209;52.952;6.790;2023-04-06T11:44:29;30.30;;;21.17;;
58412;SDS011;44209;52.952;6.790;2023-04-06T11:47:06;28.83;;;21.77;;
58412;SDS011;44209;52.952;6.790;2023-04-06T11:49:36;30.45;;;22.98;;
58412;SDS011;44209;52.952;6.790;2023-04-06T11:52:13;33.13;;;22.20;;
58412;SDS011;44209;52.952;6.790;2023-04-06T11:54:43;31.00;;;21.27;;
58412;SDS011;44209;52.952;6.790;2023-04-06T11:57:09;32.33;;;22.27;;
58412;SDS011;44209;52.952;6.790;2023-04-06T11:59:35;33.17;;;22.90;;
58412;SDS011;44209;52.952;6.790;2023-04-06T12:02:01;32.45;;;22.58;;
58412;SDS011;44209;52.952;6.790;2023-04-06T12:04:30;30.30;;;22.80;;
58412;SDS011;44209;52.952;6.790;2023-04-06T12:06:57;30.00;;;22.58;;
58412;SDS011;44209;52.952;6.790;2023-04-06T12:09:23;30.98;;;23.25;;
58412;SDS011;44209;52.952;6.790;2023-04-06T12:11:49;32.35;;;22.88;;
58412;SDS011;44209;52.952;6.790;2023-04-06T12:14:15;31.33;;;21.85;;
58412;SDS011;44209;52.952;6.790;2023-04-06T12:16:41;31.65;;;22.85;;
58412;SDS011;44209;52.952;6.790;2023-04-06T12:19:07;33.50;;;21.77;;
58412;SDS011;44209;52.952;6.790;2023-04-06T12:21:33;30.65;;;23.27;;
58412;SDS011;44209;52.952;6.790;2023-04-06T12:24:02;32.67;;;22.75;;
58412;SDS011;44209;52.952;6.790;2023-04-06T12:26:29;31.20;;;22.83;;
58412;SDS011;44209;52.952;6.790;2023-04-06T12:28:55;30.00;;;22.48;;
58412;SDS011;44209;52.952;6.790;2023-04-06T12:31:21;30.88;;;21.92;;
58412;SDS011;44209;52.952;6.790;2023-04-06T12:33:48;34.53;;;22.92;;
58412;SDS011;44209;52.952;6.790;2023-04-06T12:36:19;33.00;;;22.92;;
58412;SDS011;44209;52.952;6.790;2023-04-06T12:38:47;32.80;;;22.60;;
58412;SDS011;44209;52.952;6.790;2023-04-06T12:41:13;34.47;;;22.77;;
58412;SDS011;44209;52.952;6.790;2023-04-06T12:43:41;30.70;;;22.30;;
58412;SDS011;44209;52.952;6.790;2023-04-06T12:46:07;32.00;;;23.08;;
58412;SDS011;44209;52.952;6.790;2023-04-06T12:48:33;32.63;;;23.25;;
58412;SDS011;44209;52.952;6.790;2023-04-06T12:51:04;34.35;;;23.77;;
58412;SDS011;44209;52.952;6.790;2023-04-06T12:53:31;31.00;;;23.10;;
58412;SDS011;44209;52.952;6.790;2023-04-06T12:55:58;34.33;;;23.77;;
58412;SDS011;44209;52.952;6.790;2023-04-06T12:58:25;30.35;;;22.83;;
58412;SDS011;44209;52.952;6.790;2023-04-06T13:01:05;34.28;;;22.50;;
58412;SDS011;44209;52.952;6.790;2023-04-06T13:03:32;34.00;;;23.55;;
58412;SDS011;44209;52.952;6.790;2023-04-06T13:05:58;31.83;;;22.73;;
58412;SDS011;44209;52.952;6.790;2023-04-06T13:08:27;33.25;;;23.45;;
58412;SDS011;44209;52.952;6.790;2023-04-06T13:10:53;34.78;;;23.65;;
58412;SDS011;44209;52.952;6.790;2023-04-06T13:13:21;31.65;;;22.80;;
58412;SDS011;44209;52.952;6.790;2023-04-06T13:15:55;35.08;;;22.95;;
58412;SDS011;44209;52.952;6.790;2023-04-06T13:18:28;34.58;;;23.52;;
58412;SDS011;44209;52.952;6.790;2023-04-06T13:20:55;33.97;;;23.20;;
58412;SDS011;44209;52.952;6.790;2023-04-06T13:23:25;31.17;;;21.80;;
58412;SDS011;44209;52.952;6.790;2023-04-06T13:26:04;34.30;;;23.65;;
58412;SDS011;44209;52.952;6.790;2023-04-06T13:28:31;32.60;;;22.92;;
58412;SDS011;44209;52.952;6.790;2023-04-06T13:30:58;28.50;;;20.45;;
58412;SDS011;44209;52.952;6.790;2023-04-06T13:33:25;33.35;;;22.42;;
58412;SDS011;44209;52.952;6.790;2023-04-06T13:35:54;33.20;;;21.63;;
58412;SDS011;44209;52.952;6.790;2023-04-06T13:38:20;31.65;;;21.20;;
58412;SDS011;44209;52.952;6.790;2023-04-06T13:40:46;29.90;;;21.65;;
58412;SDS011;44209;52.952;6.790;2023-04-06T13:43:12;30.77;;;21.85;;
58412;SDS011;44209;52.952;6.790;2023-04-06T13:45:38;30.63;;;21.25;;
58412;SDS011;44209;52.952;6.790;2023-04-06T13:48:04;33.20;;;22.33;;
58412;SDS011;44209;52.952;6.790;2023-04-06T13:50:32;32.00;;;22.23;;
58412;SDS011;44209;52.952;6.790;2023-04-06T13:52:59;30.30;;;20.40;;
58412;SDS011;44209;52.952;6.790;2023-04-06T13:55:25;28.95;;;19.63;;
58412;SDS011;44209;52.952;6.790;2023-04-06T13:57:51;28.75;;;19.67;;
58412;SDS011;44209;52.952;6.790;2023-04-06T14:00:16;30.58;;;19.80;;
58412;SDS011;44209;52.952;6.790;2023-04-06T14:02:42;28.30;;;18.42;;
58412;SDS011;44209;52.952;6.790;2023-04-06T14:05:08;28.35;;;19.42;;
58412;SDS011;44209;52.952;6.790;2023-04-06T14:07:34;29.45;;;19.60;;
58412;SDS011;44209;52.952;6.790;2023-04-06T14:10:01;31.00;;;19.15;;
58412;SDS011;44209;52.952;6.790;2023-04-06T14:12:27;25.98;;;18.67;;
58412;SDS011;44209;52.952;6.790;2023-04-06T14:14:53;26.65;;;17.90;;
58412;SDS011;44209;52.952;6.790;2023-04-06T14:17:18;28.58;;;18.25;;
58412;SDS011;44209;52.952;6.790;2023-04-06T14:19:44;26.92;;;18.63;;
58412;SDS011;44209;52.952;6.790;2023-04-06T14:22:10;31.52;;;19.60;;
58412;SDS011;44209;52.952;6.790;2023-04-06T14:24:36;24.98;;;18.50;;
58412;SDS011;44209;52.952;6.790;2023-04-06T14:27:02;26.27;;;19.17;;
58412;SDS011;44209;52.952;6.790;2023-04-06T14:29:28;27.42;;;18.80;;
58412;SDS011;44209;52.952;6.790;2023-04-06T14:31:53;29.10;;;18.95;;
58412;SDS011;44209;52.952;6.790;2023-04-06T14:34:25;28.97;;;19.27;;
58412;SDS011;44209;52.952;6.790;2023-04-06T14:36:53;25.55;;;18.17;;
58412;SDS011;44209;52.952;6.790;2023-04-06T14:39:19;26.73;;;19.10;;